TimeCST,TemperatureF,Dew PointF,Humidity,Sea Level PressureIn,VisibilityMPH,Wind Direction,Wind SpeedMPH,Gust SpeedMPH,PrecipitationIn,Events,Conditions,WindDirDegrees,DateUTC
12:53 AM,24.1,19.9,84,29.84,10.0,Calm,Calm,-,N/A,,Overcast,0,2012-11-25 06:53:00
1:53 AM,24.1,19.9,84,29.83,10.0,Calm,Calm,-,N/A,,Overcast,0,2012-11-25 07:53:00
2:53 AM,24.1,19.9,84,29.84,10.0,Calm,Calm,-,N/A,,Overcast,0,2012-11-25 08:53:00
3:53 AM,24.1,19.0,81,29.84,10.0,West,3.5,-,N/A,,Overcast,280,2012-11-25 09:53:00
4:53 AM,24.1,19.0,81,29.86,10.0,Variable,4.6,-,N/A,,Overcast,0,2012-11-25 10:53:00
5:00 AM,24.8,19.4,80,29.80,10.0,Calm,Calm,-,N/A,,Overcast,0,2012-11-25 11:00:00
5:22 AM,24.8,19.4,80,29.80,10.0,Variable,4.6,-,N/A,,Overcast,0,2012-11-25 11:22:00
5:53 AM,24.1,19.0,81,29.87,10.0,Variable,4.6,-,N/A,,Overcast,0,2012-11-25 11:53:00
6:38 AM,24.8,19.4,80,29.82,10.0,Calm,Calm,-,N/A,,Overcast,0,2012-11-25 12:38:00
6:53 AM,24.1,19.0,81,29.88,10.0,Variable,4.6,-,N/A,,Overcast,0,2012-11-25 12:53:00
7:53 AM,24.1,19.0,81,29.89,10.0,West,4.6,-,N/A,,Overcast,270,2012-11-25 13:53:00
8:05 AM,24.8,19.4,80,29.83,10.0,WNW,4.6,-,N/A,,Overcast,290,2012-11-25 14:05:00
8:53 AM,24.1,19.0,81,29.91,10.0,Variable,4.6,-,N/A,,Overcast,0,2012-11-25 14:53:00
9:53 AM,25.0,19.0,78,29.93,10.0,Variable,4.6,-,N/A,,Overcast,0,2012-11-25 15:53:00
10:53 AM,25.0,19.0,78,29.94,10.0,Variable,5.8,-,N/A,,Overcast,0,2012-11-25 16:53:00
11:53 AM,25.0,18.0,75,29.94,10.0,Variable,4.6,-,N/A,,Overcast,0,2012-11-25 17:53:00
12:24 PM,24.8,17.6,74,29.90,10.0,WNW,8.1,20.7,N/A,,Overcast,290,2012-11-25 18:24:00
12:44 PM,24.8,17.6,74,29.89,10.0,Variable,3.5,-,N/A,,Overcast,0,2012-11-25 18:44:00
12:53 PM,25.0,17.1,72,29.95,10.0,Variable,5.8,-,N/A,,Overcast,0,2012-11-25 18:53:00
1:53 PM,25.0,17.1,72,29.96,7.0,Variable,4.6,-,0.00,Snow,Light Snow,0,2012-11-25 19:53:00
2:29 PM,24.8,17.6,74,29.91,2.5,West,3.5,-,0.00,Snow,Light Snow,280,2012-11-25 20:29:00
2:37 PM,24.8,17.6,74,29.90,3.0,Variable,3.5,-,0.00,Snow,Light Snow,0,2012-11-25 20:37:00
2:53 PM,25.0,18.0,75,29.97,7.0,Variable,3.5,-,0.00,Snow,Light Snow,0,2012-11-25 20:53:00
3:53 PM,25.0,16.0,69,29.99,10.0,Variable,3.5,-,0.00,,Overcast,0,2012-11-25 21:53:00
4:53 PM,25.0,16.0,69,29.99,10.0,Calm,Calm,-,N/A,,Overcast,0,2012-11-25 22:53:00
5:53 PM,24.1,17.1,75,30.02,10.0,Calm,Calm,-,N/A,,Overcast,0,2012-11-25 23:53:00
6:53 PM,24.1,18.0,77,30.03,10.0,Variable,3.5,-,N/A,,Overcast,0,2012-11-26 00:53:00
7:29 PM,24.8,19.4,80,29.97,9.0,Calm,Calm,-,N/A,,Overcast,0,2012-11-26 01:29:00
7:53 PM,24.1,19.0,81,30.04,7.0,Calm,Calm,-,0.00,Snow,Light Snow,0,2012-11-26 01:53:00
8:46 PM,24.8,17.6,74,29.99,10.0,Calm,Calm,-,0.00,,Overcast,0,2012-11-26 02:46:00
8:53 PM,24.1,17.1,75,30.06,10.0,Calm,Calm,-,0.00,,Overcast,0,2012-11-26 02:53:00
9:53 PM,23.0,14.0,68,30.09,10.0,Calm,Calm,-,N/A,,Overcast,0,2012-11-26 03:53:00
10:39 PM,21.2,12.2,68,30.04,10.0,Variable,3.5,-,N/A,,Mostly Cloudy,0,2012-11-26 04:39:00
10:53 PM,21.0,12.0,68,30.11,10.0,Variable,4.6,-,N/A,,Overcast,0,2012-11-26 04:53:00
11:17 PM,19.4,12.2,74,30.06,10.0,Calm,Calm,-,N/A,,Scattered Clouds,0,2012-11-26 05:17:00
11:37 PM,19.4,12.2,74,30.08,10.0,Variable,6.9,-,N/A,,Mostly Cloudy,0,2012-11-26 05:37:00
11:53 PM,19.0,12.0,74,30.14,10.0,Variable,5.8,-,N/A,,Overcast,0,2012-11-26 05:53:00